Flight Track Log - Related Links

Times and Time Zones

All times are in EDT time to prevent confusion due to time zone crossing. See the SCX8701 flight status page for this flight to view local times or setup timezone preferences in your user account.


Time Position Orientation Groundspeed Altitude Reporting Facility
EDT Latitude Longitude Course Direction KTS MPH feet Rate Location/Type
Thu 01:28:56 PM 41.5242 -93.6781 237° Southwest 179 206 1,700  Level Minneapolis Center
Thu 01:29:41 PM 41.4969 -93.7339 237° Southwest 189 217 3,100 2,056 Climbing Minneapolis Center
Thu 01:30:44 PM 41.4597 -93.8131 238° Southwest 243 280 5,400 2,326 Climbing Minneapolis Center
Thu 01:36:26 PM 41.3221 -94.5137 261° West 402 463 18,800 2,295 Climbing FlightAware ADS-B
Thu 01:37:11 PM 41.3086 -94.6246 261° West 409 471 20,200 1,857 Climbing FlightAware ADS-B
Thu 01:37:50 PM 41.3013 -94.6849 261° West 415 478 21,400 1,895 Climbing FlightAware ADS-B
Thu 01:38:27 PM 41.2852 -94.8149 261° West 420 483 22,600 1,774 Climbing FlightAware ADS-B
Thu 01:39:45 PM 41.2600 -95.0172 261° West 427 491 24,800 1,714 Climbing FlightAware ADS-B
Thu 01:39:51 PM 41.2582 -95.0311 261° West 426 490 25,000 1,688 Climbing FlightAware ADS-B
Thu 01:40:17 PM 41.2495 -95.1002 261° West 431 496 25,700 1,538 Climbing FlightAware ADS-B
Thu 01:40:30 PM 41.2459 -95.1290 260° West 432 497 26,000 1,548 Climbing FlightAware ADS-B
Thu 01:40:48 PM 41.2393 -95.1807 260° West 434 499 26,500 1,588 Climbing FlightAware ADS-B
Thu 01:41:04 PM 41.2342 -95.2202 260° West 439 505 26,900 1,200 Climbing FlightAware ADS-B
Thu 01:41:18 PM 41.2291 -95.2600 260° West 440 506 27,100 1,067 Climbing FlightAware ADS-B
Thu 01:41:49 PM 41.2185 -95.3423 260° West 447 514 27,700 1,125 Climbing FlightAware ADS-B
Thu 01:42:22 PM 41.2067 -95.4336 260° West 454 522 28,300 952 Climbing FlightAware ADS-B
Thu 01:42:52 PM 41.1959 -95.5167 260° West 461 531 28,700 984 Climbing FlightAware ADS-B
Thu 01:43:23 PM 41.1849 -95.6010 260° West 465 535 29,300 1,377 Climbing FlightAware ADS-B
Thu 01:43:53 PM 41.1736 -95.6855 260° West 461 531 30,100 1,714 Climbing FlightAware ADS-B
Thu 01:44:19 PM 41.1628 -95.7583 256° West 458 527 30,900 1,579 Climbing FlightAware ADS-B
Thu 01:44:50 PM 41.1471 -95.8420 256° West 456 525 31,600 1,258 Climbing FlightAware ADS-B
Thu 01:45:21 PM 41.1316 -95.9244 256° West 456 525 32,200 1,180 Climbing FlightAware ADS-B
Thu 01:45:51 PM 41.1161 -96.0065 256° West 457 526 32,800 1,300 Climbing FlightAware ADS-B
Thu 01:46:21 PM 41.1008 -96.0876 256° West 455 524 33,500 1,180 Climbing FlightAware ADS-B
Thu 01:46:52 PM 41.0851 -96.1698 256° West 453 521 34,000 492 Climbing FlightAware ADS-B
Thu 01:47:22 PM 41.0695 -96.2519 256° West 452 520 34,000 689 Level FlightAware ADS-B
Thu 01:47:53 PM 41.0537 -96.3337 256° West 446 513 34,700 1,107 Climbing FlightAware ADS-B
Thu 01:49:05 PM 41.0171 -96.5224 256° West 442 509 35,900 757 Climbing FlightAware ADS-B
Thu 01:49:36 PM 41.0015 -96.6024 255° West 442 509 36,000 78 Climbing FlightAware ADS-B
Thu 01:50:22 PM 40.9775 -96.7245 255° West 441 507 36,000  Level FlightAware ADS-B
Thu 01:51:27 PM 40.9464 -96.8789 255° West 443 510 36,000  Level Minneapolis Center
Thu 01:52:29 PM 40.9142 -97.0347 255° West 442 509 36,000  Level Minneapolis Center
Thu 01:53:31 PM 40.8831 -97.1908 255° West 442 509 36,000  Level Minneapolis Center
Thu 01:54:33 PM 40.8514 -97.3469 255° West 442 509 36,000  Level Minneapolis Center
Thu 01:55:36 PM 40.8183 -97.5072 255° West 442 509 36,000  Level Minneapolis Center
Thu 01:56:38 PM 40.7864 -97.6644 255° West 442 509 36,000  Level Minneapolis Center
Thu 01:57:40 PM 40.7478 -97.8528 255° West 442 509 36,000  Level Minneapolis Center
Thu 01:58:42 PM 40.7153 -98.0097 255° West 442 509 36,000  Level Minneapolis Center
Thu 01:59:44 PM 40.6822 -98.1667 255° West 442 509 36,000  Level Minneapolis Center
Thu 02:00:46 PM 40.6492 -98.3247 255° West 442 509 36,000  Level Minneapolis Center
Thu 02:01:49 PM 40.6147 -98.4828 254° West 443 510 36,000  Level Minneapolis Center
Thu 02:02:51 PM 40.5806 -98.6403 254° West 444 511 36,000  Level Minneapolis Center
Thu 02:03:53 PM 40.5464 -98.7978 254° West 444 511 36,000  Level Minneapolis Center
Thu 02:04:55 PM 40.5056 -98.9856 254° West 444 511 36,000  Level Minneapolis Center
Thu 02:05:57 PM 40.4714 -99.1414 254° West 444 511 36,000  Level Minneapolis Center
Thu 02:06:27 PM 40.4583 -99.2025 254° West 443 510 36,000  Level Denver Center
Thu 02:07:29 PM 40.4233 -99.3575 254° West 441 507 36,000  Level Denver Center
Thu 02:08:31 PM 40.3892 -99.5125 254° West 441 507 36,000  Level Denver Center
Thu 02:09:33 PM 40.3475 -99.6958 253° West 439 505 36,000  Level Denver Center
Thu 02:10:35 PM 40.3133 -99.8497 254° West 439 505 36,000  Level Denver Center
Thu 02:16:23 PM 40.1076 -100.7360 253° West 436 502 36,000  Level FlightAware ADS-B
Thu 02:16:53 PM 40.0902 -100.8095 253° West 435 501 36,000  Level FlightAware ADS-B
Thu 02:17:30 PM 40.0682 -100.9014 253° West 436 502 36,000  Level FlightAware ADS-B
Thu 02:18:24 PM 40.0367 -101.0332 253° West 437 503 36,000  Level FlightAware ADS-B
Thu 02:18:55 PM 40.0171 -101.1149 253° West 437 503 36,000  Level FlightAware ADS-B
Thu 02:19:37 PM 39.9914 -101.2209 252° West 437 503 36,000  Level FlightAware ADS-B
Thu 02:20:15 PM 39.9681 -101.3167 252° West 437 503 36,000  Level FlightAware ADS-B
Thu 02:20:54 PM 39.9465 -101.4055 252° West 437 503 36,000  Level FlightAware ADS-B
Thu 02:21:44 PM 39.9305 -101.4706 252° West 438 504 36,000  Level FlightAware ADS-B
Thu 02:22:15 PM 39.8945 -101.6176 252° West 438 504 36,000  Level FlightAware ADS-B
Thu 02:22:46 PM 39.8765 -101.6908 252° West 438 504 36,000  Level FlightAware ADS-B
Thu 02:23:16 PM 39.8581 -101.7651 252° West 438 504 36,000  Level FlightAware ADS-B
Thu 02:23:46 PM 39.8391 -101.8416 252° West 437 503 36,000  Level FlightAware ADS-B
Thu 02:24:18 PM 39.8193 -101.9218 252° West 438 504 36,000  Level FlightAware ADS-B
Thu 02:24:49 PM 39.8010 -101.9949 252° West 437 503 36,000  Level FlightAware ADS-B
Thu 02:25:30 PM 39.7736 -102.1044 252° West 436 502 36,000  Level FlightAware ADS-B
Thu 02:26:03 PM 39.7545 -102.1801 252° West 435 501 36,000  Level FlightAware ADS-B
Thu 02:26:44 PM 39.7275 -102.2869 252° West 435 501 36,000  Level FlightAware ADS-B
Thu 02:27:14 PM 39.7085 -102.3616 252° West 434 499 36,000  Level FlightAware ADS-B
Thu 02:27:45 PM 39.6918 -102.4276 252° West 433 498 36,000  Level FlightAware ADS-B
Thu 02:28:17 PM 39.6711 -102.5083 252° West 433 498 36,000  Level FlightAware ADS-B
Thu 02:28:47 PM 39.6499 -102.5912 252° West 433 498 36,000  Level FlightAware ADS-B
Thu 02:29:17 PM 39.6315 -102.6629 252° West 434 499 36,000  Level FlightAware ADS-B
Thu 02:29:55 PM 39.6084 -102.7524 252° West 435 501 36,000  Level FlightAware ADS-B
Thu 02:30:26 PM 39.5873 -102.8343 252° West 436 502 36,000  Level FlightAware ADS-B
Thu 02:30:57 PM 39.5674 -102.9112 251° West 437 503 36,000  Level FlightAware ADS-B
Thu 02:31:29 PM 39.5482 -102.9846 251° West 437 503 36,000  Level FlightAware ADS-B
Thu 02:32:09 PM 39.5221 -103.0845 252° West 439 505 36,000  Level FlightAware ADS-B
Thu 02:32:41 PM 39.5030 -103.1576 251° West 438 504 36,000  Level FlightAware ADS-B
Thu 02:33:22 PM 39.4749 -103.2650 251° West 438 504 36,000  Level FlightAware ADS-B
Thu 02:33:58 PM 39.4503 -103.3581 251° West 440 506 36,000  Level FlightAware ADS-B
Thu 02:34:32 PM 39.4289 -103.4389 251° West 440 506 36,000  Level FlightAware ADS-B
Thu 02:35:10 PM 39.4026 -103.5378 251° West 439 505 36,000  Level FlightAware ADS-B
Thu 02:35:42 PM 39.3829 -103.6111 251° West 440 506 36,000  Level FlightAware ADS-B
Thu 02:36:13 PM 39.3639 -103.6823 251° West 438 504 36,000  Level FlightAware ADS-B
Thu 02:36:50 PM 39.3467 -103.7468 251° West 436 502 36,000  Level FlightAware ADS-B
Thu 02:37:26 PM 39.3139 -103.8690 251° West 436 502 36,000  Level FlightAware ADS-B
Thu 02:38:00 PM 39.2923 -103.9487 251° West 436 502 36,000  Level FlightAware ADS-B
Thu 02:38:33 PM 39.2685 -104.0363 251° West 436 502 36,000  Level FlightAware ADS-B
Thu 02:39:25 PM 39.2374 -104.1502 251° West 436 502 36,000  Level FlightAware ADS-B
Thu 02:40:01 PM 39.2106 -104.2486 251° West 435 501 36,000  Level FlightAware ADS-B
Thu 02:40:32 PM 39.1910 -104.3203 251° West 435 501 36,000  Level FlightAware ADS-B
Thu 02:41:02 PM 39.1694 -104.3986 251° West 434 499 36,000  Level FlightAware ADS-B
Thu 02:41:34 PM 39.1473 -104.4786 251° West 434 499 36,000  Level FlightAware ADS-B
Thu 02:42:04 PM 39.1277 -104.5497 250° West 433 498 36,000  Level FlightAware ADS-B
Thu 02:42:35 PM 39.1076 -104.6223 250° West 432 497 36,000  Level FlightAware ADS-B
Thu 02:43:07 PM 39.0929 -104.6753 250° West 432 497 36,000  Level FlightAware ADS-B
Thu 02:43:40 PM 39.0628 -104.7827 250° West 433 498 36,000  Level FlightAware ADS-B
Thu 02:44:10 PM 39.0424 -104.8554 250° West 432 497 36,000  Level FlightAware ADS-B
Thu 02:44:42 PM 39.0212 -104.9307 250° West 432 497 36,000  Level FlightAware ADS-B
Thu 02:45:16 PM 38.9982 -105.0129 250° West 433 498 36,000  Level FlightAware ADS-B
Thu 02:45:56 PM 38.9709 -105.1094 250° West 432 497 36,000  Level FlightAware ADS-B
Thu 02:46:26 PM 38.9540 -105.1688 250° West 432 497 36,000  Level FlightAware ADS-B
Thu 02:47:00 PM 38.9296 -105.2548 250° West 431 496 36,000  Level FlightAware ADS-B
Thu 02:47:35 PM 38.9033 -105.3474 250° West 431 496 36,000  Level FlightAware ADS-B
Thu 02:48:14 PM 38.8762 -105.4418 250° West 431 496 36,000  Level FlightAware ADS-B
Thu 02:48:45 PM 38.8579 -105.5053 250° West 431 496 36,000  Level FlightAware ADS-B
Thu 02:49:30 PM 38.8239 -105.6233 250° West 432 497 36,000  Level FlightAware ADS-B
Thu 02:50:05 PM 38.7995 -105.7078 250° West 432 497 36,000  Level FlightAware ADS-B
Thu 02:50:41 PM 38.7769 -105.7860 250° West 431 496 36,000  Level FlightAware ADS-B
Thu 02:51:11 PM 38.7537 -105.8657 250° West 431 496 36,000  Level FlightAware ADS-B
Thu 02:51:41 PM 38.7328 -105.9372 250° West 430 495 36,000  Level FlightAware ADS-B
Thu 02:52:11 PM 38.7154 -106.0095 254° West 430 495 36,000  Level FlightAware ADS-B
Thu 02:52:42 PM 38.6985 -106.0856 254° West 431 496 36,000  Level FlightAware ADS-B
Thu 02:53:12 PM 38.6823 -106.1583 254° West 431 496 36,000  Level FlightAware ADS-B
Thu 02:53:46 PM 38.6631 -106.2428 254° West 430 495 36,000  Level FlightAware ADS-B
Thu 02:54:19 PM 38.6452 -106.3215 254° West 431 496 36,000  Level FlightAware ADS-B
Thu 02:54:51 PM 38.6274 -106.4001 254° West 431 496 36,000  Level FlightAware ADS-B
Thu 02:55:22 PM 38.6108 -106.4728 254° West 430 495 36,000  Level FlightAware ADS-B
Thu 02:55:53 PM 38.5935 -106.5483 254° West 431 496 36,000  Level FlightAware ADS-B (KGUC)
Thu 02:56:23 PM 38.5768 -106.6207 254° West 431 496 36,000  Level FlightAware ADS-B (EDXW / GWT)
Thu 02:56:56 PM 38.5616 -106.6866 254° West 432 497 36,000  Level FlightAware ADS-B
Thu 02:57:29 PM 38.5395 -106.7825 254° West 432 497 36,000  Level FlightAware ADS-B
Thu 02:57:59 PM 38.5224 -106.8565 254° West 433 498 36,000  Level FlightAware ADS-B
Thu 02:58:30 PM 38.5052 -106.9304 253° West 433 498 36,000  Level FlightAware ADS-B (EDXW / GWT)
Thu 02:59:02 PM 38.4888 -107.0005 254° West 434 499 36,000  Level FlightAware ADS-B (KGUC)
Thu 02:59:35 PM 38.4680 -107.0896 253° West 433 498 36,000  Level FlightAware ADS-B
Thu 03:00:09 PM 38.4475 -107.1767 253° West 433 498 36,000  Level FlightAware ADS-B
Thu 03:00:40 PM 38.4299 -107.2513 253° West 432 497 36,000  Level FlightAware ADS-B
Thu 03:01:14 PM 38.4114 -107.3297 253° West 432 497 36,000  Level FlightAware ADS-B
Thu 03:01:45 PM 38.3929 -107.4078 253° West 433 498 36,000  Level FlightAware ADS-B
Thu 03:02:22 PM 38.3710 -107.4994 253° West 431 496 36,000  Level FlightAware ADS-B
Thu 03:02:53 PM 38.3532 -107.5737 253° West 431 496 36,000  Level FlightAware ADS-B (KGUC)
Thu 03:03:30 PM 38.3313 -107.6649 253° West 430 495 36,000  Level FlightAware ADS-B
Thu 03:04:00 PM 38.3136 -107.7377 250° West 429 494 36,000  Level FlightAware ADS-B
Thu 03:04:30 PM 38.2929 -107.8021 247° West 427 491 36,000  Level FlightAware ADS-B
Thu 03:05:04 PM 38.2659 -107.8849 248° West 426 490 36,000  Level FlightAware ADS-B
Thu 03:05:38 PM 38.2387 -107.9615 245° Southwest 424 488 36,000  Level FlightAware ADS-B
Thu 03:06:08 PM 38.2137 -108.0301 245° Southwest 423 487 36,000  Level FlightAware ADS-B
Thu 03:06:43 PM 38.1998 -108.0685 246° West 422 486 36,000  Level FlightAware ADS-B
Thu 03:07:13 PM 38.1613 -108.1758 246° West 420 483 36,000  Level FlightAware ADS-B (KGUC)
Thu 03:07:43 PM 38.1371 -108.2429 245° Southwest 419 482 36,000  Level FlightAware ADS-B (KGUC)
Thu 03:08:03 PM 38.1209 -108.2879 245° Southwest 418 481 36,000  Level FlightAware ADS-B (KGUC)
Thu 03:08:36 PM 38.0939 -108.3610 243° Southwest 416 479 36,000  Level FlightAware ADS-B
Thu 03:09:06 PM 38.0676 -108.4246 242° Southwest 415 478 36,000  Level FlightAware ADS-B
Thu 03:09:42 PM 38.0358 -108.5009 242° Southwest 415 478 36,000  Level FlightAware ADS-B (KGUC)
Thu 03:10:13 PM 38.0094 -108.5643 243° Southwest 414 476 36,000  Level FlightAware ADS-B (KGUC)
Thu 03:10:43 PM 37.9836 -108.6271 242° Southwest 413 475 36,000  Level FlightAware ADS-B (KGUC)
Thu 03:11:13 PM 37.9554 -108.6954 243° Southwest 412 474 36,000  Level FlightAware ADS-B (KGUC)
Thu 03:11:48 PM 37.9237 -108.7735 243° Southwest 411 473 36,000  Level FlightAware ADS-B
Thu 03:12:18 PM 37.8981 -108.8374 243° Southwest 413 475 36,000  Level FlightAware ADS-B
Thu 03:12:51 PM 37.8697 -108.9083 244° Southwest 414 476 36,000  Level FlightAware ADS-B (KGUC)
Thu 03:13:22 PM 37.8485 -108.9640 245° Southwest 413 475 36,000  Level FlightAware ADS-B (KGUC)
Thu 03:13:52 PM 37.8231 -109.0357 247° West 413 475 36,000  Level FlightAware ADS-B (KGUC)
Thu 03:14:24 PM 37.8047 -109.0878 243° Southwest 412 474 36,000  Level FlightAware ADS-B (KGUC)
Thu 03:14:55 PM 37.7686 -109.1778 243° Southwest 411 473 36,000  Level FlightAware ADS-B (KGUC)
Thu 03:15:29 PM 37.7399 -109.2495 243° Southwest 411 473 36,000  Level FlightAware ADS-B
Thu 03:16:01 PM 37.7153 -109.3222 252° West 413 475 36,000  Level FlightAware ADS-B
Thu 03:16:31 PM 37.7000 -109.3904 257° West 415 478 36,000  Level FlightAware ADS-B (KGUC)
Thu 03:17:04 PM 37.6834 -109.4680 254° West 414 476 36,000  Level FlightAware ADS-B
Thu 03:17:36 PM 37.6668 -109.5406 254° West 414 476 36,000  Level FlightAware ADS-B
Thu 03:18:12 PM 37.6489 -109.6207 255° West 414 476 36,000  Level FlightAware ADS-B
Thu 03:18:54 PM 37.6277 -109.7177 255° West 415 478 36,000  Level FlightAware ADS-B
Thu 03:19:24 PM 37.6111 -109.7935 255° West 415 478 36,000  Level FlightAware ADS-B
Thu 03:19:59 PM 37.5939 -109.8720 255° West 415 478 36,000  Level FlightAware ADS-B
Thu 03:20:35 PM 37.5750 -109.9575 254° West 416 479 36,000 -225 Level FlightAware ADS-B (KGUC)
Thu 03:21:19 PM 37.5580 -110.0337 254° West 415 478 35,700 -733 Descending FlightAware ADS-B
Thu 03:22:05 PM 37.5286 -110.1651 254° West 423 487 34,900 -1,036 Descending FlightAware ADS-B
Thu 03:23:09 PM 37.4947 -110.3168 254° West 424 488 33,800 -1,008 Descending FlightAware ADS-B
Thu 03:24:10 PM 37.4629 -110.4580 254° West 413 475 32,800 -885 Descending FlightAware ADS-B
Thu 03:25:11 PM 37.4302 -110.6009 254° West 408 470 32,000 -381 Descending FlightAware ADS-B
Thu 03:26:16 PM 37.3953 -110.7536 254° West 428 493 32,000  Level FlightAware ADS-B
Thu 03:27:19 PM 37.3610 -110.9024 254° West 428 493 32,000  Level FlightAware ADS-B
Thu 03:28:26 PM 37.3243 -111.0609 254° West 428 493 32,000  Level FlightAware ADS-B
Thu 03:29:27 PM 37.2925 -111.1970 254° West 428 493 32,000  Level FlightAware ADS-B
Thu 03:30:27 PM 37.2573 -111.3473 254° West 429 494 32,000  Level FlightAware ADS-B
Thu 03:31:32 PM 37.2200 -111.5056 254° West 432 497 32,000  Level FlightAware ADS-B
Thu 03:33:41 PM 37.1459 -111.8160 253° West 433 498 32,000  Level FlightAware ADS-B
Thu 03:34:39 PM 37.1346 -111.8627 253° West 433 498 32,000  Level FlightAware ADS-B
Thu 03:35:39 PM 37.1015 -112.1073 264° West 439 505 32,000  Level FlightAware ADS-B
Thu 03:36:49 PM 37.0913 -112.2769 266° West 439 505 32,000 -224 Level FlightAware ADS-B
Thu 03:37:53 PM 37.0814 -112.4451 265° West 434 499 31,500 -1,210 Descending FlightAware ADS-B
Thu 03:38:53 PM 37.0705 -112.5894 265° West 451 519 29,500 -1,694 Descending FlightAware ADS-B
Thu 03:39:57 PM 37.0415 -112.7553 253° West 446 513 28,000 -732 Descending FlightAware ADS-B
Thu 03:40:56 PM 36.9949 -112.8910 247° West 442 509 28,000 -536 Level FlightAware ADS-B
Thu 03:42:56 PM 36.8973 -113.1723 247° West 423 487 26,400 -803 Descending FlightAware ADS-B
Thu 03:43:33 PM 36.8689 -113.2540 247° West 417 480 25,900 -1,059 Descending FlightAware ADS-B
Thu 03:44:21 PM 36.8317 -113.3605 247° West 414 476 24,900 -1,012 Descending FlightAware ADS-B
Thu 03:44:56 PM 36.8052 -113.4365 247° West 414 476 24,500 -900 Descending FlightAware ADS-B
Thu 03:45:41 PM 36.7706 -113.5348 246° West 412 474 23,700 -1,027 Descending FlightAware ADS-B
Thu 03:46:47 PM 36.7208 -113.6762 246° West 405 466 22,600 -976 Descending FlightAware ADS-B
Thu 03:48:27 PM 36.6462 -113.8864 246° West 405 466 21,000 -877 Descending FlightAware ADS-B
Thu 03:48:57 PM 36.6317 -113.9261 246° West 401 461 20,700 -1,370 Descending Los Angeles Center
Thu 03:49:59 PM 36.5897 -114.0472 247° West 386 444 18,900 -2,081 Descending Los Angeles Center
Thu 03:51:01 PM 36.5303 -114.1825 241° Southwest 373 429 16,400 -2,313 Descending Los Angeles Center
Thu 03:51:35 PM 36.5022 -114.2475 242° Southwest 366 421 15,200 -2,032 Descending Los Angeles Center
Thu 03:52:03 PM 36.4803 -114.2950 240° Southwest 358 412 14,300 -2,073 Descending Los Angeles Center
Thu 03:52:30 PM 36.4586 -114.3428 241° Southwest 343 395 13,300 -1,839 Descending Los Angeles Center
Thu 03:53:05 PM 36.4319 -114.3975 239° Southwest 350 403 12,400 -1,200 Descending Los Angeles Center
Thu 03:53:25 PM 36.4158 -114.4325 240° Southwest 333 383 12,200 -381 Descending Los Angeles Center
Thu 03:54:08 PM 36.3819 -114.4814 229° Southwest 304 350 12,000 -358 Descending Los Angeles Center
Thu 03:54:32 PM 36.3481 -114.4878 189° South 264 304 11,800 -581 Descending Los Angeles Center
Thu 03:55:10 PM 36.3114 -114.4886 181° South 255 293 11,400 -873 Descending Los Angeles Center
Thu 03:55:27 PM 36.2858 -114.4900 183° South 240 276 11,000 -1,065 Descending Los Angeles Center
Thu 03:56:12 PM 36.2444 -114.4908 181° South 244 281 10,300 -1,180 Descending Los Angeles Center
Thu 03:56:28 PM 36.2217 -114.4931 185° South 234 269 9,800 -1,258 Descending Los Angeles Center
Thu 03:57:14 PM 36.1811 -114.4964 184° South 233 268 9,000 -1,400 Descending Los Angeles Center
Thu 03:57:28 PM 36.1675 -114.5222 237° Southwest 232 267 8,400 -968 Descending Los Angeles Center
Thu 03:58:16 PM 36.1419 -114.5781 240° Southwest 232 267 8,000 -393 Descending Los Angeles Center
Thu 03:58:29 PM 36.1364 -114.5967 250° West 228 262 8,000  Level Los Angeles Center
Thu 03:59:19 PM 36.1242 -114.6550 255° West 231 266 8,000 -179 Level Los Angeles Center
Thu 03:59:36 PM 36.1181 -114.6803 253° West 235 270 7,800 -538 Descending Los Angeles Center
Thu 04:00:37 PM 36.0994 -114.7611 254° West 241 277 7,300 -280 Descending Los Angeles Center
Thu 04:01:23 PM 36.0858 -114.8119 252° West 236 272 7,300 -295 Level Los Angeles Center
Thu 04:01:38 PM 36.0814 -114.8364 257° West 231 266 7,000 -1,355 Descending Los Angeles Center
Thu 04:02:25 PM 36.0731 -114.8969 260° West 242 278 5,900 -1,475 Descending Los Angeles Center
Thu 04:02:39 PM 36.0725 -114.9244 269° West 240 276 5,500 -1,524 Descending Los Angeles Center
Thu 04:03:28 PM 36.0739 -114.9822 272° West 229 264 4,300 -1,433 Descending Los Angeles Center
Thu 04:03:46 PM 36.0728 -115.0044 266° West 214 246 3,900 -1,068 Descending Los Angeles Center
Thu 04:04:41 PM 36.0731 -115.0653 270° West 187 215 3,000 -906 Descending Los Angeles Center
Thu 04:05:32 PM 36.0736 -115.1117 271° West 167 192 2,300 -787 Descending Los Angeles Center
Thu 04:05:42 PM 36.0725 -115.1214 262° West 156 180 2,200 -600 Descending Los Angeles Center
Thu 04:07:00 PM 36.0667 -115.1500 219° Southwest  Level FlightAware Approximate

Login

Don't have an account? Register now (free) for customized features, flight alerts, and more!